sensor_id;sensor_type;location;lat;lon;timestamp;temperature;humidity
59857;DHT22;45733;52.668;6.860;2023-07-30T00:01:57;15.90;99.90
59857;DHT22;45733;52.668;6.860;2023-07-30T00:04:23;15.90;99.90
59857;DHT22;45733;52.668;6.860;2023-07-30T00:06:49;15.90;99.90
59857;DHT22;45733;52.668;6.860;2023-07-30T00:09:14;15.90;99.90
59857;DHT22;45733;52.668;6.860;2023-07-30T00:11:40;15.90;99.90
59857;DHT22;45733;52.668;6.860;2023-07-30T00:14:06;16.00;99.90
59857;DHT22;45733;52.668;6.860;2023-07-30T00:16:31;16.00;99.90
59857;DHT22;45733;52.668;6.860;2023-07-30T00:18:57;15.90;99.90
59857;DHT22;45733;52.668;6.860;2023-07-30T00:21:23;16.00;99.90
59857;DHT22;45733;52.668;6.860;2023-07-30T00:23:48;15.80;99.90
59857;DHT22;45733;52.668;6.860;2023-07-30T00:26:14;15.70;99.90
59857;DHT22;45733;52.668;6.860;2023-07-30T00:28:40;15.70;99.90
59857;DHT22;45733;52.668;6.860;2023-07-30T00:31:06;15.70;99.90
59857;DHT22;45733;52.668;6.860;2023-07-30T00:33:31;15.70;99.90
59857;DHT22;45733;52.668;6.860;2023-07-30T00:35:57;15.70;99.90
59857;DHT22;45733;52.668;6.860;2023-07-30T00:38:23;15.50;99.90
59857;DHT22;45733;52.668;6.860;2023-07-30T00:40:49;15.50;99.90
59857;DHT22;45733;52.668;6.860;2023-07-30T00:43:14;15.50;99.90
59857;DHT22;45733;52.668;6.860;2023-07-30T00:45:42;15.70;99.90
59857;DHT22;45733;52.668;6.860;2023-07-30T00:48:10;15.50;99.90
59857;DHT22;45733;52.668;6.860;2023-07-30T00:50:36;15.60;99.90
59857;DHT22;45733;52.668;6.860;2023-07-30T00:53:02;15.50;99.90
59857;DHT22;45733;52.668;6.860;2023-07-30T00:55:27;15.60;99.90
59857;DHT22;45733;52.668;6.860;2023-07-30T00:57:53;15.40;99.90
59857;DHT22;45733;52.668;6.860;2023-07-30T01:00:19;15.30;99.90
59857;DHT22;45733;52.668;6.860;2023-07-30T01:02:45;15.30;99.90
59857;DHT22;45733;52.668;6.860;2023-07-30T01:05:11;15.30;99.90
59857;DHT22;45733;52.668;6.860;2023-07-30T01:07:36;15.30;99.90
59857;DHT22;45733;52.668;6.860;2023-07-30T01:10:03;15.40;99.90
59857;DHT22;45733;52.668;6.860;2023-07-30T01:12:30;15.40;99.90
59857;DHT22;45733;52.668;6.860;2023-07-30T01:14:57;15.30;99.90
59857;DHT22;45733;52.668;6.860;2023-07-30T01:17:23;15.30;99.90
59857;DHT22;45733;52.668;6.860;2023-07-30T01:19:49;15.20;99.90
59857;DHT22;45733;52.668;6.860;2023-07-30T01:22:16;15.20;99.90
59857;DHT22;45733;52.668;6.860;2023-07-30T01:24:41;15.30;99.90
59857;DHT22;45733;52.668;6.860;2023-07-30T01:27:08;15.30;99.90
59857;DHT22;45733;52.668;6.860;2023-07-30T01:32:04;15.20;99.90
59857;DHT22;45733;52.668;6.860;2023-07-30T01:34:36;15.30;99.90
59857;DHT22;45733;52.668;6.860;2023-07-30T01:37:04;15.20;99.90
59857;DHT22;45733;52.668;6.860;2023-07-30T01:39:31;15.20;99.90
59857;DHT22;45733;52.668;6.860;2023-07-30T01:41:57;15.30;99.90
59857;DHT22;45733;52.668;6.860;2023-07-30T01:44:23;15.10;99.90
59857;DHT22;45733;52.668;6.860;2023-07-30T01:46:48;15.10;99.90
59857;DHT22;45733;52.668;6.860;2023-07-30T01:49:14;15.00;99.90
59857;DHT22;45733;52.668;6.860;2023-07-30T01:51:40;15.00;99.90
59857;DHT22;45733;52.668;6.860;2023-07-30T01:54:05;15.00;99.90
59857;DHT22;45733;52.668;6.860;2023-07-30T01:56:31;14.90;99.90
59857;DHT22;45733;52.668;6.860;2023-07-30T01:58:57;14.90;99.90
59857;DHT22;45733;52.668;6.860;2023-07-30T02:01:23;15.00;99.90
59857;DHT22;45733;52.668;6.860;2023-07-30T02:03:48;14.90;99.90
59857;DHT22;45733;52.668;6.860;2023-07-30T02:06:14;15.00;99.90
59857;DHT22;45733;52.668;6.860;2023-07-30T02:08:40;14.90;99.90
59857;DHT22;45733;52.668;6.860;2023-07-30T02:11:05;15.00;99.90
59857;DHT22;45733;52.668;6.860;2023-07-30T02:13:31;14.90;99.90
59857;DHT22;45733;52.668;6.860;2023-07-30T02:15:57;14.90;99.90
59857;DHT22;45733;52.668;6.860;2023-07-30T02:18:22;14.90;99.90
59857;DHT22;45733;52.668;6.860;2023-07-30T02:20:48;14.90;99.90
59857;DHT22;45733;52.668;6.860;2023-07-30T02:23:15;14.90;99.90
59857;DHT22;45733;52.668;6.860;2023-07-30T02:25:43;14.80;99.90
59857;DHT22;45733;52.668;6.860;2023-07-30T02:28:09;14.80;99.90
59857;DHT22;45733;52.668;6.860;2023-07-30T02:30:35;14.70;99.90
59857;DHT22;45733;52.668;6.860;2023-07-30T02:33:01;14.70;99.90
59857;DHT22;45733;52.668;6.860;2023-07-30T02:35:27;14.80;99.90
59857;DHT22;45733;52.668;6.860;2023-07-30T02:37:52;14.60;99.90
59857;DHT22;45733;52.668;6.860;2023-07-30T02:40:18;14.60;99.90
59857;DHT22;45733;52.668;6.860;2023-07-30T02:42:44;14.70;99.90
59857;DHT22;45733;52.668;6.860;2023-07-30T02:45:10;14.60;99.90
59857;DHT22;45733;52.668;6.860;2023-07-30T02:47:36;14.60;99.90
59857;DHT22;45733;52.668;6.860;2023-07-30T02:50:05;14.70;99.90
59857;DHT22;45733;52.668;6.860;2023-07-30T02:52:31;14.60;99.90
59857;DHT22;45733;52.668;6.860;2023-07-30T02:54:57;14.70;99.90
59857;DHT22;45733;52.668;6.860;2023-07-30T02:57:23;14.70;99.90
59857;DHT22;45733;52.668;6.860;2023-07-30T02:59:48;14.70;99.90
59857;DHT22;45733;52.668;6.860;2023-07-30T03:02:14;14.50;99.90
59857;DHT22;45733;52.668;6.860;2023-07-30T03:04:40;14.50;99.90
59857;DHT22;45733;52.668;6.860;2023-07-30T03:07:06;14.60;99.90
59857;DHT22;45733;52.668;6.860;2023-07-30T03:09:32;14.70;99.90
59857;DHT22;45733;52.668;6.860;2023-07-30T03:11:58;14.60;99.90
59857;DHT22;45733;52.668;6.860;2023-07-30T03:14:24;14.60;99.90
59857;DHT22;45733;52.668;6.860;2023-07-30T03:16:50;14.60;99.90
59857;DHT22;45733;52.668;6.860;2023-07-30T03:19:16;14.60;99.90
59857;DHT22;45733;52.668;6.860;2023-07-30T03:21:42;14.40;99.90
59857;DHT22;45733;52.668;6.860;2023-07-30T03:24:08;14.60;99.90
59857;DHT22;45733;52.668;6.860;2023-07-30T03:26:34;14.40;99.90
59857;DHT22;45733;52.668;6.860;2023-07-30T03:28:59;14.50;99.90
59857;DHT22;45733;52.668;6.860;2023-07-30T03:31:25;14.50;99.90
59857;DHT22;45733;52.668;6.860;2023-07-30T03:33:51;14.50;99.90
59857;DHT22;45733;52.668;6.860;2023-07-30T03:36:16;14.50;99.90
59857;DHT22;45733;52.668;6.860;2023-07-30T03:38:43;14.60;99.90
59857;DHT22;45733;52.668;6.860;2023-07-30T03:41:10;14.40;99.90
59857;DHT22;45733;52.668;6.860;2023-07-30T03:43:36;14.60;99.90
59857;DHT22;45733;52.668;6.860;2023-07-30T03:46:02;14.40;99.90
59857;DHT22;45733;52.668;6.860;2023-07-30T03:48:30;14.40;99.90
59857;DHT22;45733;52.668;6.860;2023-07-30T03:50:56;14.60;99.90
59857;DHT22;45733;52.668;6.860;2023-07-30T03:53:22;14.60;99.90
59857;DHT22;45733;52.668;6.860;2023-07-30T03:55:48;14.60;99.90
59857;DHT22;45733;52.668;6.860;2023-07-30T03:58:14;14.60;99.90
59857;DHT22;45733;52.668;6.860;2023-07-30T04:00:40;14.40;99.90
59857;DHT22;45733;52.668;6.860;2023-07-30T04:03:06;14.50;99.90
59857;DHT22;45733;52.668;6.860;2023-07-30T04:05:31;14.50;99.90
59857;DHT22;45733;52.668;6.860;2023-07-30T04:07:57;14.60;99.90
59857;DHT22;45733;52.668;6.860;2023-07-30T04:10:23;14.50;99.90
59857;DHT22;45733;52.668;6.860;2023-07-30T04:12:49;14.40;99.90
59857;DHT22;45733;52.668;6.860;2023-07-30T04:15:15;14.50;99.90
59857;DHT22;45733;52.668;6.860;2023-07-30T04:17:41;14.40;99.90
59857;DHT22;45733;52.668;6.860;2023-07-30T04:20:08;14.60;99.90
59857;DHT22;45733;52.668;6.860;2023-07-30T04:22:35;14.40;99.90
59857;DHT22;45733;52.668;6.860;2023-07-30T04:25:01;14.50;99.90
59857;DHT22;45733;52.668;6.860;2023-07-30T04:27:27;14.60;99.90
59857;DHT22;45733;52.668;6.860;2023-07-30T04:29:53;14.50;99.90
59857;DHT22;45733;52.668;6.860;2023-07-30T04:32:18;14.50;99.90
59857;DHT22;45733;52.668;6.860;2023-07-30T04:34:44;14.70;99.90
59857;DHT22;45733;52.668;6.860;2023-07-30T04:37:10;14.70;99.90
59857;DHT22;45733;52.668;6.860;2023-07-30T04:39:36;14.70;99.90
59857;DHT22;45733;52.668;6.860;2023-07-30T04:42:02;14.90;99.90
59857;DHT22;45733;52.668;6.860;2023-07-30T04:44:28;14.90;99.90
59857;DHT22;45733;52.668;6.860;2023-07-30T04:46:53;14.80;99.90
59857;DHT22;45733;52.668;6.860;2023-07-30T04:49:19;15.10;99.90
59857;DHT22;45733;52.668;6.860;2023-07-30T04:51:45;15.10;99.90
59857;DHT22;45733;52.668;6.860;2023-07-30T04:54:11;15.00;99.90
59857;DHT22;45733;52.668;6.860;2023-07-30T04:56:36;15.10;99.90
59857;DHT22;45733;52.668;6.860;2023-07-30T04:59:02;15.00;99.90
59857;DHT22;45733;52.668;6.860;2023-07-30T05:01:29;15.00;99.90
59857;DHT22;45733;52.668;6.860;2023-07-30T05:03:55;15.30;99.90
59857;DHT22;45733;52.668;6.860;2023-07-30T05:06:21;15.30;99.90
59857;DHT22;45733;52.668;6.860;2023-07-30T05:08:46;15.30;99.90
59857;DHT22;45733;52.668;6.860;2023-07-30T05:11:12;15.20;99.90
59857;DHT22;45733;52.668;6.860;2023-07-30T05:13:38;15.30;99.90
59857;DHT22;45733;52.668;6.860;2023-07-30T05:16:03;15.40;99.90
59857;DHT22;45733;52.668;6.860;2023-07-30T05:18:29;15.50;99.90
59857;DHT22;45733;52.668;6.860;2023-07-30T05:20:55;15.70;99.90
59857;DHT22;45733;52.668;6.860;2023-07-30T05:23:21;15.60;99.90
59857;DHT22;45733;52.668;6.860;2023-07-30T05:25:47;16.60;99.90
59857;DHT22;45733;52.668;6.860;2023-07-30T05:28:13;16.70;99.90
59857;DHT22;45733;52.668;6.860;2023-07-30T05:30:39;16.70;99.90
59857;DHT22;45733;52.668;6.860;2023-07-30T05:33:04;16.30;99.90
59857;DHT22;45733;52.668;6.860;2023-07-30T05:35:30;16.20;99.90
59857;DHT22;45733;52.668;6.860;2023-07-30T05:37:56;16.10;99.90
59857;DHT22;45733;52.668;6.860;2023-07-30T05:40:22;16.10;99.90
59857;DHT22;45733;52.668;6.860;2023-07-30T05:42:48;16.00;99.90
59857;DHT22;45733;52.668;6.860;2023-07-30T05:45:14;16.00;99.90
59857;DHT22;45733;52.668;6.860;2023-07-30T05:47:40;16.10;99.90
59857;DHT22;45733;52.668;6.860;2023-07-30T05:50:06;16.00;99.90
59857;DHT22;45733;52.668;6.860;2023-07-30T05:52:33;16.00;99.90
59857;DHT22;45733;52.668;6.860;2023-07-30T05:54:59;16.20;99.90
59857;DHT22;45733;52.668;6.860;2023-07-30T05:57:24;16.20;99.90
59857;DHT22;45733;52.668;6.860;2023-07-30T05:59:50;16.30;99.90
59857;DHT22;45733;52.668;6.860;2023-07-30T06:02:17;16.20;99.90
59857;DHT22;45733;52.668;6.860;2023-07-30T06:04:42;16.40;99.90
59857;DHT22;45733;52.668;6.860;2023-07-30T06:07:08;16.40;99.90
59857;DHT22;45733;52.668;6.860;2023-07-30T06:09:34;16.60;99.90
59857;DHT22;45733;52.668;6.860;2023-07-30T06:12:00;16.70;99.90
59857;DHT22;45733;52.668;6.860;2023-07-30T06:14:26;16.70;99.90
59857;DHT22;45733;52.668;6.860;2023-07-30T06:16:53;16.60;99.90
59857;DHT22;45733;52.668;6.860;2023-07-30T06:19:19;16.80;99.90
59857;DHT22;45733;52.668;6.860;2023-07-30T06:21:45;16.70;99.90
59857;DHT22;45733;52.668;6.860;2023-07-30T06:24:11;16.70;99.90
59857;DHT22;45733;52.668;6.860;2023-07-30T06:26:36;16.70;99.90
59857;DHT22;45733;52.668;6.860;2023-07-30T06:29:02;16.80;99.90
59857;DHT22;45733;52.668;6.860;2023-07-30T06:31:28;16.70;99.90
59857;DHT22;45733;52.668;6.860;2023-07-30T06:33:53;16.70;99.90
59857;DHT22;45733;52.668;6.860;2023-07-30T06:36:19;16.90;99.90
59857;DHT22;45733;52.668;6.860;2023-07-30T06:38:45;17.20;99.90
59857;DHT22;45733;52.668;6.860;2023-07-30T06:41:10;17.30;99.90
59857;DHT22;45733;52.668;6.860;2023-07-30T06:43:36;17.60;99.90
59857;DHT22;45733;52.668;6.860;2023-07-30T06:46:02;17.60;99.90
59857;DHT22;45733;52.668;6.860;2023-07-30T06:48:27;17.60;99.90
59857;DHT22;45733;52.668;6.860;2023-07-30T06:50:57;17.70;99.90
59857;DHT22;45733;52.668;6.860;2023-07-30T06:53:22;17.70;99.90
59857;DHT22;45733;52.668;6.860;2023-07-30T06:55:48;17.80;99.90
59857;DHT22;45733;52.668;6.860;2023-07-30T06:58:14;17.80;99.90
59857;DHT22;45733;52.668;6.860;2023-07-30T07:00:39;17.80;99.90
59857;DHT22;45733;52.668;6.860;2023-07-30T07:03:05;17.80;99.90
59857;DHT22;45733;52.668;6.860;2023-07-30T07:05:31;17.70;99.90
59857;DHT22;45733;52.668;6.860;2023-07-30T07:07:57;17.70;99.90
59857;DHT22;45733;52.668;6.860;2023-07-30T07:10:26;17.60;99.90
59857;DHT22;45733;52.668;6.860;2023-07-30T07:12:51;17.80;99.90
59857;DHT22;45733;52.668;6.860;2023-07-30T07:15:23;18.00;99.90
59857;DHT22;45733;52.668;6.860;2023-07-30T07:17:58;18.00;99.90
59857;DHT22;45733;52.668;6.860;2023-07-30T07:20:23;18.30;99.90
59857;DHT22;45733;52.668;6.860;2023-07-30T07:22:49;18.50;99.90
59857;DHT22;45733;52.668;6.860;2023-07-30T07:25:15;18.80;99.90
59857;DHT22;45733;52.668;6.860;2023-07-30T07:27:44;18.80;99.90
59857;DHT22;45733;52.668;6.860;2023-07-30T07:30:19;18.90;99.90
59857;DHT22;45733;52.668;6.860;2023-07-30T07:32:45;19.00;99.90
59857;DHT22;45733;52.668;6.860;2023-07-30T07:35:10;19.00;99.90
59857;DHT22;45733;52.668;6.860;2023-07-30T07:37:36;18.80;99.90
59857;DHT22;45733;52.668;6.860;2023-07-30T07:40:05;18.80;99.90
59857;DHT22;45733;52.668;6.860;2023-07-30T07:42:37;18.70;99.90
59857;DHT22;45733;52.668;6.860;2023-07-30T07:45:03;18.70;99.90
59857;DHT22;45733;52.668;6.860;2023-07-30T07:47:28;18.70;99.90
59857;DHT22;45733;52.668;6.860;2023-07-30T07:49:54;18.70;99.90
59857;DHT22;45733;52.668;6.860;2023-07-30T07:52:20;18.70;99.90
59857;DHT22;45733;52.668;6.860;2023-07-30T07:54:46;18.70;99.90
59857;DHT22;45733;52.668;6.860;2023-07-30T07:57:12;18.70;99.90
59857;DHT22;45733;52.668;6.860;2023-07-30T07:59:37;18.60;99.90
59857;DHT22;45733;52.668;6.860;2023-07-30T08:02:03;18.70;99.90
59857;DHT22;45733;52.668;6.860;2023-07-30T08:04:29;18.80;99.90
59857;DHT22;45733;52.668;6.860;2023-07-30T08:06:55;18.90;99.90
59857;DHT22;45733;52.668;6.860;2023-07-30T08:09:25;19.00;99.90
59857;DHT22;45733;52.668;6.860;2023-07-30T08:11:51;19.10;99.90
59857;DHT22;45733;52.668;6.860;2023-07-30T08:14:16;19.10;99.90
59857;DHT22;45733;52.668;6.860;2023-07-30T08:16:42;19.30;99.90
59857;DHT22;45733;52.668;6.860;2023-07-30T08:19:07;19.70;99.90
59857;DHT22;45733;52.668;6.860;2023-07-30T08:21:33;19.70;99.90
59857;DHT22;45733;52.668;6.860;2023-07-30T08:23:59;19.70;99.90
59857;DHT22;45733;52.668;6.860;2023-07-30T08:26:24;19.60;99.90
59857;DHT22;45733;52.668;6.860;2023-07-30T08:28:50;19.50;99.90
59857;DHT22;45733;52.668;6.860;2023-07-30T08:31:16;19.40;99.90
59857;DHT22;45733;52.668;6.860;2023-07-30T08:33:41;19.70;99.90
59857;DHT22;45733;52.668;6.860;2023-07-30T08:36:07;20.30;99.90
59857;DHT22;45733;52.668;6.860;2023-07-30T08:38:33;20.20;99.90
59857;DHT22;45733;52.668;6.860;2023-07-30T08:40:58;20.10;99.90
59857;DHT22;45733;52.668;6.860;2023-07-30T08:43:24;20.10;99.90
59857;DHT22;45733;52.668;6.860;2023-07-30T08:45:50;20.20;99.90
59857;DHT22;45733;52.668;6.860;2023-07-30T08:48:15;20.20;99.90
59857;DHT22;45733;52.668;6.860;2023-07-30T08:50:42;20.00;99.90
59857;DHT22;45733;52.668;6.860;2023-07-30T08:53:08;20.00;99.90
59857;DHT22;45733;52.668;6.860;2023-07-30T08:55:34;20.20;99.90
59857;DHT22;45733;52.668;6.860;2023-07-30T08:58:04;20.30;99.90
59857;DHT22;45733;52.668;6.860;2023-07-30T09:00:38;20.20;99.90
59857;DHT22;45733;52.668;6.860;2023-07-30T09:03:06;20.20;99.90
59857;DHT22;45733;52.668;6.860;2023-07-30T09:05:32;20.20;99.90
59857;DHT22;45733;52.668;6.860;2023-07-30T09:07:58;20.60;99.90
59857;DHT22;45733;52.668;6.860;2023-07-30T09:10:25;20.70;99.90
59857;DHT22;45733;52.668;6.860;2023-07-30T09:12:56;20.70;99.90
59857;DHT22;45733;52.668;6.860;2023-07-30T09:15:34;20.70;99.90
59857;DHT22;45733;52.668;6.860;2023-07-30T09:18:00;20.80;99.90
59857;DHT22;45733;52.668;6.860;2023-07-30T09:20:27;20.50;99.90
59857;DHT22;45733;52.668;6.860;2023-07-30T09:22:55;20.20;99.90
59857;DHT22;45733;52.668;6.860;2023-07-30T09:25:21;20.10;99.90
59857;DHT22;45733;52.668;6.860;2023-07-30T09:27:52;20.00;99.90
59857;DHT22;45733;52.668;6.860;2023-07-30T09:30:25;19.80;99.90
59857;DHT22;45733;52.668;6.860;2023-07-30T09:32:54;19.60;99.90
59857;DHT22;45733;52.668;6.860;2023-07-30T09:35:20;19.40;99.90
59857;DHT22;45733;52.668;6.860;2023-07-30T09:37:46;19.30;99.90
59857;DHT22;45733;52.668;6.860;2023-07-30T09:40:14;19.40;99.90
59857;DHT22;45733;52.668;6.860;2023-07-30T09:42:44;19.40;99.90
59857;DHT22;45733;52.668;6.860;2023-07-30T09:45:21;19.20;99.90
59857;DHT22;45733;52.668;6.860;2023-07-30T09:47:48;19.20;99.90
59857;DHT22;45733;52.668;6.860;2023-07-30T09:50:14;19.10;99.90
59857;DHT22;45733;52.668;6.860;2023-07-30T09:52:42;18.90;99.90
59857;DHT22;45733;52.668;6.860;2023-07-30T09:55:08;19.30;99.90
59857;DHT22;45733;52.668;6.860;2023-07-30T09:57:34;19.70;99.90
59857;DHT22;45733;52.668;6.860;2023-07-30T10:00:01;20.00;99.90
59857;DHT22;45733;52.668;6.860;2023-07-30T10:02:28;20.50;99.90
59857;DHT22;45733;52.668;6.860;2023-07-30T10:04:59;20.40;99.90
59857;DHT22;45733;52.668;6.860;2023-07-30T10:07:26;20.20;99.90
59857;DHT22;45733;52.668;6.860;2023-07-30T10:09:57;20.30;99.90
59857;DHT22;45733;52.668;6.860;2023-07-30T10:12:33;20.20;99.90
59857;DHT22;45733;52.668;6.860;2023-07-30T10:15:01;19.80;99.90
59857;DHT22;45733;52.668;6.860;2023-07-30T10:17:26;19.60;99.90
59857;DHT22;45733;52.668;6.860;2023-07-30T10:19:54;19.70;99.90
59857;DHT22;45733;52.668;6.860;2023-07-30T10:22:22;19.70;99.90
59857;DHT22;45733;52.668;6.860;2023-07-30T10:25:03;20.00;99.90
59857;DHT22;45733;52.668;6.860;2023-07-30T10:27:49;20.10;99.90
59857;DHT22;45733;52.668;6.860;2023-07-30T10:30:17;20.40;99.90
59857;DHT22;45733;52.668;6.860;2023-07-30T10:38:27;20.70;99.90
59857;DHT22;45733;52.668;6.860;2023-07-30T10:43:29;20.40;99.90
59857;DHT22;45733;52.668;6.860;2023-07-30T10:45:55;20.20;99.90
59857;DHT22;45733;52.668;6.860;2023-07-30T10:48:35;20.30;99.90
59857;DHT22;45733;52.668;6.860;2023-07-30T10:51:04;21.30;99.90
59857;DHT22;45733;52.668;6.860;2023-07-30T10:53:29;21.10;99.90
59857;DHT22;45733;52.668;6.860;2023-07-30T10:55:58;20.90;99.90
59857;DHT22;45733;52.668;6.860;2023-07-30T10:58:26;21.20;99.90
59857;DHT22;45733;52.668;6.860;2023-07-30T11:00:53;21.50;99.90
59857;DHT22;45733;52.668;6.860;2023-07-30T11:03:18;21.20;99.90
59857;DHT22;45733;52.668;6.860;2023-07-30T11:05:47;21.10;99.90
59857;DHT22;45733;52.668;6.860;2023-07-30T11:08:14;20.70;99.90
59857;DHT22;45733;52.668;6.860;2023-07-30T11:10:47;20.70;99.90
59857;DHT22;45733;52.668;6.860;2023-07-30T11:13:13;21.20;99.90
59857;DHT22;45733;52.668;6.860;2023-07-30T11:15:43;21.60;99.90
59857;DHT22;45733;52.668;6.860;2023-07-30T11:18:11;21.70;99.90
59857;DHT22;45733;52.668;6.860;2023-07-30T11:20:36;22.20;99.90
59857;DHT22;45733;52.668;6.860;2023-07-30T11:23:02;22.60;99.90
59857;DHT22;45733;52.668;6.860;2023-07-30T11:25:28;21.90;99.90
59857;DHT22;45733;52.668;6.860;2023-07-30T11:27:54;21.10;99.90
59857;DHT22;45733;52.668;6.860;2023-07-30T11:30:20;20.70;99.90
59857;DHT22;45733;52.668;6.860;2023-07-30T11:32:45;20.40;99.90
59857;DHT22;45733;52.668;6.860;2023-07-30T11:35:12;20.60;99.90
59857;DHT22;45733;52.668;6.860;2023-07-30T11:37:40;20.70;99.90
59857;DHT22;45733;52.668;6.860;2023-07-30T11:40:09;21.50;99.90
59857;DHT22;45733;52.668;6.860;2023-07-30T11:42:38;22.00;99.90
59857;DHT22;45733;52.668;6.860;2023-07-30T11:45:21;22.20;99.90
59857;DHT22;45733;52.668;6.860;2023-07-30T11:47:48;22.40;99.90
59857;DHT22;45733;52.668;6.860;2023-07-30T11:50:14;22.40;99.90
59857;DHT22;45733;52.668;6.860;2023-07-30T11:52:56;22.60;99.90
59857;DHT22;45733;52.668;6.860;2023-07-30T11:55:22;22.90;99.90
59857;DHT22;45733;52.668;6.860;2023-07-30T11:57:50;22.60;99.90
59857;DHT22;45733;52.668;6.860;2023-07-30T12:00:16;22.30;99.90
59857;DHT22;45733;52.668;6.860;2023-07-30T12:02:46;22.80;99.90
59857;DHT22;45733;52.668;6.860;2023-07-30T12:05:12;23.00;99.90
59857;DHT22;45733;52.668;6.860;2023-07-30T12:07:40;23.50;99.90
59857;DHT22;45733;52.668;6.860;2023-07-30T12:10:10;23.30;99.90
59857;DHT22;45733;52.668;6.860;2023-07-30T12:12:36;23.10;99.90
59857;DHT22;45733;52.668;6.860;2023-07-30T12:15:10;22.50;99.90
59857;DHT22;45733;52.668;6.860;2023-07-30T12:17:38;23.20;99.90
59857;DHT22;45733;52.668;6.860;2023-07-30T12:20:05;23.80;99.90
59857;DHT22;45733;52.668;6.860;2023-07-30T12:22:33;23.90;99.90
59857;DHT22;45733;52.668;6.860;2023-07-30T12:25:01;23.90;99.90
59857;DHT22;45733;52.668;6.860;2023-07-30T12:27:27;23.90;99.90
59857;DHT22;45733;52.668;6.860;2023-07-30T12:29:53;22.90;99.90
59857;DHT22;45733;52.668;6.860;2023-07-30T12:32:18;22.20;99.90
59857;DHT22;45733;52.668;6.860;2023-07-30T12:34:44;22.00;99.90
59857;DHT22;45733;52.668;6.860;2023-07-30T12:37:10;21.30;99.90
59857;DHT22;45733;52.668;6.860;2023-07-30T12:39:35;20.40;99.90
59857;DHT22;45733;52.668;6.860;2023-07-30T12:42:01;20.20;99.90
59857;DHT22;45733;52.668;6.860;2023-07-30T12:44:27;20.90;99.90
59857;DHT22;45733;52.668;6.860;2023-07-30T12:46:52;20.90;99.90
59857;DHT22;45733;52.668;6.860;2023-07-30T12:49:18;20.60;99.90
59857;DHT22;45733;52.668;6.860;2023-07-30T12:51:44;20.80;99.90
59857;DHT22;45733;52.668;6.860;2023-07-30T12:54:10;21.00;99.90
59857;DHT22;45733;52.668;6.860;2023-07-30T12:56:36;21.00;99.90
59857;DHT22;45733;52.668;6.860;2023-07-30T12:59:02;21.30;99.90
59857;DHT22;45733;52.668;6.860;2023-07-30T13:01:27;22.10;99.90
59857;DHT22;45733;52.668;6.860;2023-07-30T13:03:53;22.90;99.90
59857;DHT22;45733;52.668;6.860;2023-07-30T13:06:23;23.20;99.90
59857;DHT22;45733;52.668;6.860;2023-07-30T13:08:48;23.40;99.90
59857;DHT22;45733;52.668;6.860;2023-07-30T13:11:14;22.90;99.90
59857;DHT22;45733;52.668;6.860;2023-07-30T13:13:40;22.40;99.90
59857;DHT22;45733;52.668;6.860;2023-07-30T13:16:05;22.00;99.90
59857;DHT22;45733;52.668;6.860;2023-07-30T13:18:31;22.10;99.90
59857;DHT22;45733;52.668;6.860;2023-07-30T13:21:00;22.00;99.90
59857;DHT22;45733;52.668;6.860;2023-07-30T13:23:28;21.80;99.90
59857;DHT22;45733;52.668;6.860;2023-07-30T13:25:56;21.60;99.90
59857;DHT22;45733;52.668;6.860;2023-07-30T13:28:21;21.50;99.90
59857;DHT22;45733;52.668;6.860;2023-07-30T13:30:47;21.60;99.90
59857;DHT22;45733;52.668;6.860;2023-07-30T13:33:13;21.60;99.90
59857;DHT22;45733;52.668;6.860;2023-07-30T13:35:38;21.70;99.90
59857;DHT22;45733;52.668;6.860;2023-07-30T13:38:04;22.00;99.90
59857;DHT22;45733;52.668;6.860;2023-07-30T13:40:29;22.70;99.90
59857;DHT22;45733;52.668;6.860;2023-07-30T13:42:55;22.80;99.90
59857;DHT22;45733;52.668;6.860;2023-07-30T13:45:21;23.10;99.90
59857;DHT22;45733;52.668;6.860;2023-07-30T13:47:46;22.80;99.90
59857;DHT22;45733;52.668;6.860;2023-07-30T13:50:12;22.40;99.90
59857;DHT22;45733;52.668;6.860;2023-07-30T13:52:41;22.10;99.90
59857;DHT22;45733;52.668;6.860;2023-07-30T13:55:09;21.70;99.90
59857;DHT22;45733;52.668;6.860;2023-07-30T13:57:34;22.10;99.90
59857;DHT22;45733;52.668;6.860;2023-07-30T14:00:00;22.10;99.90
59857;DHT22;45733;52.668;6.860;2023-07-30T14:02:29;22.90;99.90
59857;DHT22;45733;52.668;6.860;2023-07-30T14:04:54;22.80;99.90
59857;DHT22;45733;52.668;6.860;2023-07-30T14:07:20;22.50;99.90
59857;DHT22;45733;52.668;6.860;2023-07-30T14:09:46;22.20;99.90
59857;DHT22;45733;52.668;6.860;2023-07-30T14:12:11;22.20;99.90
59857;DHT22;45733;52.668;6.860;2023-07-30T14:14:37;22.20;99.90
59857;DHT22;45733;52.668;6.860;2023-07-30T14:17:03;22.50;99.90
59857;DHT22;45733;52.668;6.860;2023-07-30T14:19:32;23.00;99.90
59857;DHT22;45733;52.668;6.860;2023-07-30T14:21:58;23.10;99.90
59857;DHT22;45733;52.668;6.860;2023-07-30T14:24:24;22.60;99.90
59857;DHT22;45733;52.668;6.860;2023-07-30T14:26:49;22.30;99.90
59857;DHT22;45733;52.668;6.860;2023-07-30T14:29:15;22.10;99.90
59857;DHT22;45733;52.668;6.860;2023-07-30T14:31:41;21.80;99.90
59857;DHT22;45733;52.668;6.860;2023-07-30T14:34:06;21.40;99.90
59857;DHT22;45733;52.668;6.860;2023-07-30T14:36:32;20.90;99.90
59857;DHT22;45733;52.668;6.860;2023-07-30T14:38:58;20.70;99.90
59857;DHT22;45733;52.668;6.860;2023-07-30T14:41:23;20.30;99.90
59857;DHT22;45733;52.668;6.860;2023-07-30T14:43:49;20.10;99.90
59857;DHT22;45733;52.668;6.860;2023-07-30T14:46:15;19.90;99.90
59857;DHT22;45733;52.668;6.860;2023-07-30T14:48:41;19.90;99.90
59857;DHT22;45733;52.668;6.860;2023-07-30T14:51:10;19.90;99.90
59857;DHT22;45733;52.668;6.860;2023-07-30T14:53:36;20.00;99.90
59857;DHT22;45733;52.668;6.860;2023-07-30T14:56:02;20.80;99.90
59857;DHT22;45733;52.668;6.860;2023-07-30T14:58:28;21.20;99.90
59857;DHT22;45733;52.668;6.860;2023-07-30T15:00:54;21.60;99.90
59857;DHT22;45733;52.668;6.860;2023-07-30T15:03:20;21.60;99.90
59857;DHT22;45733;52.668;6.860;2023-07-30T15:05:46;21.60;99.90
59857;DHT22;45733;52.668;6.860;2023-07-30T15:08:11;21.80;99.90
59857;DHT22;45733;52.668;6.860;2023-07-30T15:10:37;22.10;99.90
59857;DHT22;45733;52.668;6.860;2023-07-30T15:13:03;22.00;99.90
59857;DHT22;45733;52.668;6.860;2023-07-30T15:15:29;22.20;99.90
59857;DHT22;45733;52.668;6.860;2023-07-30T15:17:54;22.00;99.90
59857;DHT22;45733;52.668;6.860;2023-07-30T15:20:20;21.80;99.90
59857;DHT22;45733;52.668;6.860;2023-07-30T15:22:46;21.70;99.90
59857;DHT22;45733;52.668;6.860;2023-07-30T15:25:12;21.20;99.90
59857;DHT22;45733;52.668;6.860;2023-07-30T15:27:37;21.00;99.90
59857;DHT22;45733;52.668;6.860;2023-07-30T15:30:04;20.90;99.90
59857;DHT22;45733;52.668;6.860;2023-07-30T15:32:30;20.80;99.90
59857;DHT22;45733;52.668;6.860;2023-07-30T15:34:58;20.70;99.90
59857;DHT22;45733;52.668;6.860;2023-07-30T15:37:24;20.90;99.90